Strona główna
METAR-TAF:

METAR-TAF

Lotnisko :

Portland International Jetport

Portland, Maine, Stany Zjednoczone

Szerokość geograficzna: 43-38-32N, Długość geograficzna: 070-18-16W, wysokość: 22 m

Aktualna obserwacja pogody

Raport powstał 35 minut temu, godzina 01:51 UTC
Wiatr 4 kt od południowy zachód
Temperatura 1°C
Wilgotność 64%
Ciśnienie 1017 hPa
Widzialność: 16.1 km
bezchmurnie

METAR: KPWM 170151Z 22004KT 10SM CLR 01/M05 A3003 RMK AO2 SLP171 T00111050 $

czas: 21:26 (02:26 UTC)

Prognoza

Raport powstał 2 godziny i 52 minut temu, godzina 23:34 UTC
Prognoza ważna od 17 godzina 00 UTC do 17 godzina 24 UTC
Wiatr 4 kt od zachodnio-południowy zachód
Widzialność: 10 km
Rozproszone chmury na wysokości 5000 ft
Przerywane chmury na wysokości 20000 ft
Od 17 godzina 1300 UTC
Wiatr 8 kt od północny zachód
Widzialność: 10 km
Rozproszone chmury na wysokości 25000 ft

TAF: KPWM 162334Z 1700/1724 25004KT P6SM SCT050 BKN200 FM171300 31008KT P6SM SCT250

Obserwacja i prognoza pogody dla ponad 4000 lotnisk (raport METAR i TAF).

Dostępne stacje oznaczono żółtymi i czerwonymi punktami na mapie.

Najedź kursorem aby zobaczyć nazwę stacji.

Kliknij aby zobaczyć obserwacje i prognozy pogody.

Aby zmienić mapę: kliknij na zielony przycisk z czarnym krzyżykiem, aby powiększyć; na zielony przycisk z myślnikiem, aby pomniejszyć; na zielone strzałki, aby przejść do map sąsiednich.


METAR-TAF: